Time,TemperatureF,DewpointF,PressureIn,WindDirection,WindDirectionDegrees,WindSpeedMPH,WindSpeedGustMPH,Humidity,HourlyPrecipIn,Conditions,Clouds,dailyrainin,SoftwareType,DateUTC
2013-07-19 00:02:00,70.1,67.3,30.10,SE,128,0.0,0.0,91,0.00,,,0.00,Wunderground v.1.15,2013-07-19 04:02:00,
2013-07-19 00:03:00,70.1,67.3,30.10,SE,128,0.0,0.0,91,0.00,,,0.00,Wunderground v.1.15,2013-07-19 04:03:00,
2013-07-19 00:04:00,70.1,67.7,30.10,SE,128,0.0,0.0,92,0.00,,,0.00,Wunderground v.1.15,2013-07-19 04:04:00,
2013-07-19 00:06:00,70.1,67.7,30.10,SE,128,0.0,0.0,92,0.00,,,0.00,Wunderground v.1.15,2013-07-19 04:06:00,
2013-07-19 00:11:00,70.0,67.6,30.10,SE,128,0.0,0.0,92,0.00,,,0.00,Wunderground v.1.15,2013-07-19 04:11:00,
2013-07-19 00:14:00,69.9,67.5,30.10,SE,128,0.0,0.0,92,0.00,,,0.00,Wunderground v.1.15,2013-07-19 04:14:00,
2013-07-19 00:20:00,69.9,67.5,30.10,SE,128,0.0,0.0,92,0.00,,,0.00,Wunderground v.1.15,2013-07-19 04:20:00,
2013-07-19 00:25:00,69.9,67.5,30.10,SE,128,0.0,0.0,92,0.00,,,0.00,Wunderground v.1.15,2013-07-19 04:25:00,
2013-07-19 00:30:00,69.8,67.4,30.10,SE,128,0.0,0.0,92,0.00,,,0.00,Wunderground v.1.15,2013-07-19 04:30:00,
2013-07-19 00:35:00,69.7,67.3,30.10,SE,128,0.0,0.0,92,0.00,,,0.00,Wunderground v.1.15,2013-07-19 04:35:00,
2013-07-19 00:40:00,69.5,67.1,30.10,SE,128,0.0,0.0,92,0.00,,,0.00,Wunderground v.1.15,2013-07-19 04:40:00,
2013-07-19 00:45:00,69.4,67.0,30.10,SE,128,0.0,0.0,92,0.00,,,0.00,Wunderground v.1.15,2013-07-19 04:45:00,
2013-07-19 00:50:00,69.3,66.9,30.10,SE,128,0.0,0.0,92,0.00,,,0.00,Wunderground v.1.15,2013-07-19 04:50:00,
2013-07-19 00:55:00,69.2,66.8,30.10,SE,128,0.0,0.0,92,0.00,,,0.00,Wunderground v.1.15,2013-07-19 04:55:00,
2013-07-19 01:01:00,69.3,66.9,30.10,SE,131,0.0,0.0,92,0.00,,,0.00,Wunderground v.1.15,2013-07-19 05:01:00,
2013-07-19 01:06:00,69.3,67.2,30.10,SE,131,0.0,0.0,93,0.00,,,0.00,Wunderground v.1.15,2013-07-19 05:06:00,
2013-07-19 01:11:00,69.3,67.2,30.10,SE,131,0.0,0.0,93,0.00,,,0.00,Wunderground v.1.15,2013-07-19 05:11:00,
2013-07-19 01:16:00,69.4,67.3,30.10,SE,131,0.0,0.0,93,0.00,,,0.00,Wunderground v.1.15,2013-07-19 05:16:00,
2013-07-19 01:21:00,69.4,67.3,30.10,SE,131,0.0,0.0,93,0.00,,,0.00,Wunderground v.1.15,2013-07-19 05:21:00,
2013-07-19 01:27:00,69.3,67.2,30.10,SE,131,0.0,0.0,93,0.00,,,0.00,Wunderground v.1.15,2013-07-19 05:27:00,
2013-07-19 01:32:00,69.1,66.7,30.09,SE,131,0.0,0.0,92,0.00,,,0.00,Wunderground v.1.15,2013-07-19 05:32:00,
2013-07-19 01:37:00,69.0,66.6,30.09,SE,131,0.0,0.0,92,0.00,,,0.00,Wunderground v.1.15,2013-07-19 05:37:00,
2013-07-19 01:42:00,68.8,66.4,30.09,SE,131,0.0,0.0,92,0.00,,,0.00,Wunderground v.1.15,2013-07-19 05:42:00,
2013-07-19 01:47:00,68.6,66.2,30.09,SE,131,0.0,0.0,92,0.00,,,0.00,Wunderground v.1.15,2013-07-19 05:47:00,
2013-07-19 01:53:00,68.6,66.5,30.08,SE,131,0.0,0.0,93,0.00,,,0.00,Wunderground v.1.15,2013-07-19 05:53:00,
2013-07-19 01:58:00,68.5,66.1,30.08,SE,131,0.0,0.0,92,0.00,,,0.00,Wunderground v.1.15,2013-07-19 05:58:00,
2013-07-19 02:03:00,68.3,65.9,30.08,SE,131,0.0,0.0,92,0.00,,,0.00,Wunderground v.1.15,2013-07-19 06:03:00,
2013-07-19 02:08:00,68.3,65.9,30.08,SE,131,0.0,0.0,92,0.00,,,0.00,Wunderground v.1.15,2013-07-19 06:08:00,
2013-07-19 02:13:00,68.4,66.3,30.08,SE,131,0.0,0.0,93,0.00,,,0.00,Wunderground v.1.15,2013-07-19 06:13:00,
2013-07-19 02:18:00,68.5,66.4,30.08,SE,131,0.0,0.0,93,0.00,,,0.00,Wunderground v.1.15,2013-07-19 06:18:00,
2013-07-19 02:23:00,68.5,66.4,30.08,SE,131,0.0,0.0,93,0.00,,,0.00,Wunderground v.1.15,2013-07-19 06:23:00,
2013-07-19 02:28:00,68.4,66.3,30.07,SE,131,0.0,0.0,93,0.00,,,0.00,Wunderground v.1.15,2013-07-19 06:28:00,
2013-07-19 02:33:00,68.3,66.2,30.07,SE,131,0.0,0.0,93,0.00,,,0.00,Wunderground v.1.15,2013-07-19 06:33:00,
2013-07-19 02:38:00,68.1,66.0,30.07,SE,131,0.0,0.0,93,0.00,,,0.00,Wunderground v.1.15,2013-07-19 06:38:00,
2013-07-19 02:43:00,68.1,66.0,30.07,SE,131,0.0,0.0,93,0.00,,,0.00,Wunderground v.1.15,2013-07-19 06:43:00,
2013-07-19 02:48:00,68.0,65.9,30.07,SE,131,0.0,0.0,93,0.00,,,0.00,Wunderground v.1.15,2013-07-19 06:48:00,
2013-07-19 02:53:00,67.9,65.8,30.07,SE,131,0.0,0.0,93,0.00,,,0.00,Wunderground v.1.15,2013-07-19 06:53:00,
2013-07-19 02:58:00,67.7,65.6,30.07,SE,131,0.0,0.0,93,0.00,,,0.00,Wunderground v.1.15,2013-07-19 06:58:00,
2013-07-19 03:03:00,67.7,65.6,30.06,SE,131,0.0,0.0,93,0.00,,,0.00,Wunderground v.1.15,2013-07-19 07:03:00,
2013-07-19 03:08:00,67.6,65.5,30.07,SE,131,0.0,0.0,93,0.00,,,0.00,Wunderground v.1.15,2013-07-19 07:08:00,
2013-07-19 03:13:00,67.6,65.5,30.07,SE,131,0.0,0.0,93,0.00,,,0.00,Wunderground v.1.15,2013-07-19 07:13:00,
2013-07-19 03:18:00,67.5,65.4,30.07,SE,131,0.0,0.0,93,0.00,,,0.00,Wunderground v.1.15,2013-07-19 07:18:00,
2013-07-19 03:23:00,67.4,65.3,30.07,SE,131,0.0,0.0,93,0.00,,,0.00,Wunderground v.1.15,2013-07-19 07:23:00,
2013-07-19 03:28:00,67.4,65.6,30.07,SE,131,0.0,0.0,94,0.00,,,0.00,Wunderground v.1.15,2013-07-19 07:28:00,
2013-07-19 03:33:00,67.4,65.6,30.06,SE,131,0.0,0.0,94,0.00,,,0.00,Wunderground v.1.15,2013-07-19 07:33:00,
2013-07-19 03:38:00,67.3,65.5,30.07,SE,131,0.0,0.0,94,0.00,,,0.00,Wunderground v.1.15,2013-07-19 07:38:00,
2013-07-19 03:43:00,67.3,65.5,30.07,SE,131,0.0,0.0,94,0.00,,,0.00,Wunderground v.1.15,2013-07-19 07:43:00,
2013-07-19 03:48:00,67.3,65.5,30.07,SE,131,0.0,0.0,94,0.00,,,0.00,Wunderground v.1.15,2013-07-19 07:48:00,
2013-07-19 03:53:00,67.2,65.4,30.07,SE,131,0.0,0.0,94,0.00,,,0.00,Wunderground v.1.15,2013-07-19 07:53:00,
2013-07-19 03:58:00,67.2,65.4,30.07,SE,131,0.0,0.0,94,0.00,,,0.00,Wunderground v.1.15,2013-07-19 07:58:00,
2013-07-19 04:03:00,67.2,65.4,30.07,SE,131,0.0,0.0,94,0.00,,,0.00,Wunderground v.1.15,2013-07-19 08:03:00,
2013-07-19 04:08:00,67.2,65.4,30.07,SE,131,0.0,0.0,94,0.00,,,0.00,Wunderground v.1.15,2013-07-19 08:08:00,
2013-07-19 04:13:00,67.1,65.3,30.07,SE,131,0.0,0.0,94,0.00,,,0.00,Wunderground v.1.15,2013-07-19 08:13:00,
2013-07-19 04:19:00,67.0,65.2,30.07,SE,131,0.0,0.0,94,0.00,,,0.00,Wunderground v.1.15,2013-07-19 08:19:00,
2013-07-19 04:24:00,67.0,65.2,30.06,SE,131,0.0,0.0,94,0.00,,,0.00,Wunderground v.1.15,2013-07-19 08:24:00,
2013-07-19 04:29:00,67.0,65.2,30.06,SE,131,0.0,0.0,94,0.00,,,0.00,Wunderground v.1.15,2013-07-19 08:29:00,
2013-07-19 04:34:00,67.0,65.2,30.06,SE,131,0.0,0.0,94,0.00,,,0.00,Wunderground v.1.15,2013-07-19 08:34:00,
2013-07-19 04:39:00,67.0,65.2,30.06,SE,131,0.0,0.0,94,0.00,,,0.00,Wunderground v.1.15,2013-07-19 08:39:00,
2013-07-19 04:44:00,67.0,65.2,30.06,SE,131,0.0,0.0,94,0.00,,,0.00,Wunderground v.1.15,2013-07-19 08:44:00,
2013-07-19 04:49:00,66.9,65.1,30.06,SE,131,0.0,0.0,94,0.00,,,0.00,Wunderground v.1.15,2013-07-19 08:49:00,
2013-07-19 04:54:00,67.0,65.2,30.06,SE,131,0.0,0.0,94,0.00,,,0.00,Wunderground v.1.15,2013-07-19 08:54:00,
2013-07-19 04:59:00,67.0,65.2,30.06,SE,131,0.0,0.0,94,0.00,,,0.00,Wunderground v.1.15,2013-07-19 08:59:00,
2013-07-19 05:04:00,66.9,65.1,30.05,SE,131,0.0,0.0,94,0.00,,,0.00,Wunderground v.1.15,2013-07-19 09:04:00,
2013-07-19 05:09:00,66.8,65.0,30.05,SE,131,0.0,0.0,94,0.00,,,0.00,Wunderground v.1.15,2013-07-19 09:09:00,
2013-07-19 05:14:00,66.7,64.9,30.06,SE,131,0.0,0.0,94,0.00,,,0.00,Wunderground v.1.15,2013-07-19 09:14:00,
2013-07-19 05:18:00,66.7,64.9,30.06,SE,131,0.0,0.0,94,0.00,,,0.00,Wunderground v.1.15,2013-07-19 09:18:00,
2013-07-19 05:24:00,66.6,64.8,30.06,SE,131,0.0,0.0,94,0.00,,,0.00,Wunderground v.1.15,2013-07-19 09:24:00,
2013-07-19 05:29:00,66.6,64.8,30.06,SE,131,0.0,0.0,94,0.00,,,0.00,Wunderground v.1.15,2013-07-19 09:29:00,
2013-07-19 05:34:00,66.6,64.8,30.06,SE,131,0.0,0.0,94,0.00,,,0.00,Wunderground v.1.15,2013-07-19 09:34:00,
2013-07-19 05:39:00,66.5,64.7,30.06,SE,131,0.0,0.0,94,0.00,,,0.00,Wunderground v.1.15,2013-07-19 09:39:00,
2013-07-19 05:44:00,66.6,64.8,30.06,SE,131,0.0,0.0,94,0.00,,,0.00,Wunderground v.1.15,2013-07-19 09:44:00,
2013-07-19 05:49:00,66.7,64.9,30.06,SSE,150,0.0,0.0,94,0.00,,,0.00,Wunderground v.1.15,2013-07-19 09:49:00,
2013-07-19 05:54:00,66.9,65.4,30.06,SSE,150,0.0,0.0,95,0.00,,,0.00,Wunderground v.1.15,2013-07-19 09:54:00,
2013-07-19 05:59:00,67.0,65.5,30.06,SSE,150,0.0,0.0,95,0.00,,,0.00,Wunderground v.1.15,2013-07-19 09:59:00,
2013-07-19 06:04:00,67.0,65.5,30.06,SSE,150,0.0,0.0,95,0.00,,,0.00,Wunderground v.1.15,2013-07-19 10:04:00,
2013-07-19 06:09:00,67.0,65.5,30.06,SSE,150,0.0,0.0,95,0.00,,,0.00,Wunderground v.1.15,2013-07-19 10:09:00,
2013-07-19 06:14:00,66.9,65.4,30.06,SSE,150,0.0,0.0,95,0.00,,,0.00,Wunderground v.1.15,2013-07-19 10:14:00,
2013-07-19 06:19:00,66.7,65.2,30.06,SSE,150,0.0,0.0,95,0.00,,,0.00,Wunderground v.1.15,2013-07-19 10:19:00,
2013-07-19 06:24:00,66.6,64.8,30.06,East,86,0.0,0.0,94,0.00,,,0.00,Wunderground v.1.15,2013-07-19 10:24:00,
2013-07-19 06:29:00,66.5,64.7,30.06,ENE,66,0.0,0.0,94,0.00,,,0.00,Wunderground v.1.15,2013-07-19 10:29:00,
2013-07-19 06:34:00,66.5,64.7,30.06,ENE,65,0.0,0.0,94,0.00,,,0.00,Wunderground v.1.15,2013-07-19 10:34:00,
2013-07-19 06:39:00,66.4,64.9,30.06,East,94,0.0,0.0,95,0.00,,,0.00,Wunderground v.1.15,2013-07-19 10:39:00,
2013-07-19 06:44:00,66.5,65.0,30.06,SSE,159,0.0,0.0,95,0.00,,,0.00,Wunderground v.1.15,2013-07-19 10:44:00,
2013-07-19 06:49:00,66.5,65.0,30.06,SSE,159,0.0,0.0,95,0.00,,,0.00,Wunderground v.1.15,2013-07-19 10:49:00,
2013-07-19 06:54:00,66.5,65.0,30.06,South,172,0.0,0.0,95,0.00,,,0.00,Wunderground v.1.15,2013-07-19 10:54:00,
2013-07-19 06:59:00,66.5,65.0,30.06,SE,138,0.0,0.0,95,0.00,,,0.00,Wunderground v.1.15,2013-07-19 10:59:00,
2013-07-19 07:04:00,66.6,65.1,30.06,SE,146,0.0,0.0,95,0.00,,,0.00,Wunderground v.1.15,2013-07-19 11:04:00,
2013-07-19 07:09:00,66.7,65.2,30.07,SSW,194,0.0,0.0,95,0.00,,,0.00,Wunderground v.1.15,2013-07-19 11:09:00,
2013-07-19 07:14:00,66.8,65.3,30.07,West,271,0.0,0.0,95,0.00,,,0.00,Wunderground v.1.15,2013-07-19 11:14:00,
2013-07-19 07:19:00,66.9,65.4,30.07,West,271,0.0,0.0,95,0.00,,,0.00,Wunderground v.1.15,2013-07-19 11:19:00,
2013-07-19 07:24:00,67.1,65.6,30.07,West,271,0.0,0.0,95,0.00,,,0.00,Wunderground v.1.15,2013-07-19 11:24:00,
2013-07-19 07:29:00,67.2,65.7,30.07,West,271,0.0,0.0,95,0.00,,,0.00,Wunderground v.1.15,2013-07-19 11:29:00,
2013-07-19 07:34:00,67.4,65.9,30.07,West,271,0.0,0.0,95,0.00,,,0.00,Wunderground v.1.15,2013-07-19 11:34:00,
2013-07-19 07:39:00,67.5,66.0,30.07,WSW,258,0.0,0.0,95,0.00,,,0.00,Wunderground v.1.15,2013-07-19 11:39:00,
2013-07-19 07:44:00,67.6,66.1,30.08,SSW,197,0.0,0.0,95,0.00,,,0.00,Wunderground v.1.15,2013-07-19 11:44:00,
2013-07-19 07:49:00,67.7,66.2,30.08,SSW,192,0.0,0.0,95,0.00,,,0.00,Wunderground v.1.15,2013-07-19 11:49:00,
2013-07-19 07:54:00,67.9,66.4,30.08,SSW,192,0.0,0.0,95,0.00,,,0.00,Wunderground v.1.15,2013-07-19 11:54:00,
2013-07-19 07:59:00,68.1,66.6,30.08,SSW,192,0.0,0.0,95,0.00,,,0.00,Wunderground v.1.15,2013-07-19 11:59:00,
2013-07-19 08:04:00,68.2,66.7,30.08,SSW,192,0.0,0.0,95,0.00,,,0.00,Wunderground v.1.15,2013-07-19 12:04:00,
2013-07-19 08:09:00,68.4,66.9,30.08,SSW,192,0.0,0.0,95,0.00,,,0.00,Wunderground v.1.15,2013-07-19 12:09:00,
2013-07-19 08:14:00,68.6,67.1,30.08,SSW,192,0.0,0.0,95,0.00,,,0.00,Wunderground v.1.15,2013-07-19 12:14:00,
2013-07-19 08:19:00,68.7,67.2,30.09,SSW,192,0.0,0.0,95,0.00,,,0.00,Wunderground v.1.15,2013-07-19 12:19:00,
2013-07-19 08:24:00,68.9,67.4,30.09,SSW,192,0.0,0.0,95,0.00,,,0.00,Wunderground v.1.15,2013-07-19 12:24:00,
2013-07-19 08:29:00,69.1,67.6,30.08,SSW,192,0.0,0.0,95,0.00,,,0.00,Wunderground v.1.15,2013-07-19 12:29:00,
2013-07-19 08:33:00,69.2,67.7,30.09,NNE,21,0.0,0.0,95,0.00,,,0.00,Wunderground v.1.15,2013-07-19 12:33:00,
2013-07-19 08:38:00,69.5,68.0,30.08,NNE,21,0.0,0.0,95,0.00,,,0.00,Wunderground v.1.15,2013-07-19 12:38:00,
2013-07-19 08:43:00,70.1,68.6,30.09,WSW,254,0.0,0.0,95,0.00,,,0.00,Wunderground v.1.15,2013-07-19 12:43:00,
2013-07-19 08:48:00,70.2,68.7,30.09,SW,219,0.0,0.0,95,0.00,,,0.00,Wunderground v.1.15,2013-07-19 12:48:00,
2013-07-19 08:53:00,70.2,68.4,30.09,NE,54,0.0,0.0,94,0.00,,,0.00,Wunderground v.1.15,2013-07-19 12:53:00,
2013-07-19 08:58:00,70.4,68.6,30.09,NE,53,0.0,0.0,94,0.00,,,0.00,Wunderground v.1.15,2013-07-19 12:58:00,
2013-07-19 09:03:00,70.7,68.9,30.09,WNW,301,0.0,0.0,94,0.00,,,0.00,Wunderground v.1.15,2013-07-19 13:03:00,
2013-07-19 09:08:00,71.1,69.0,30.09,WNW,302,0.0,0.0,93,0.00,,,0.00,Wunderground v.1.15,2013-07-19 13:08:00,
2013-07-19 09:13:00,71.1,68.7,30.09,WNW,302,0.0,0.0,92,0.00,,,0.00,Wunderground v.1.15,2013-07-19 13:13:00,
2013-07-19 09:18:00,71.3,68.9,30.09,WNW,302,0.0,0.0,92,0.00,,,0.00,Wunderground v.1.15,2013-07-19 13:18:00,
2013-07-19 09:23:00,71.4,69.0,30.09,NW,309,0.0,0.0,92,0.00,,,0.00,Wunderground v.1.15,2013-07-19 13:23:00,
2013-07-19 09:26:00,71.5,69.1,30.09,NW,309,0.0,0.0,92,0.00,,,0.00,Wunderground v.1.15,2013-07-19 13:26:00,
2013-07-19 09:31:00,72.0,69.2,30.09,SE,136,0.0,0.0,91,0.00,,,0.00,Wunderground v.1.15,2013-07-19 13:31:00,
2013-07-19 09:36:00,72.4,69.3,30.09,ENE,74,0.0,0.0,90,0.00,,,0.00,Wunderground v.1.15,2013-07-19 13:36:00,
2013-07-19 09:41:00,72.8,69.7,30.09,East,97,0.0,0.0,90,0.00,,,0.00,Wunderground v.1.15,2013-07-19 13:41:00,
2013-07-19 09:46:00,73.3,69.5,30.10,West,261,0.0,0.0,88,0.00,,,0.00,Wunderground v.1.15,2013-07-19 13:46:00,
2013-07-19 09:51:00,73.7,69.9,30.10,East,94,0.0,1.0,88,0.00,,,0.00,Wunderground v.1.15,2013-07-19 13:51:00,
2013-07-19 09:56:00,74.0,69.9,30.09,ENE,73,0.0,1.0,87,0.00,,,0.00,Wunderground v.1.15,2013-07-19 13:56:00,
2013-07-19 10:01:00,74.3,70.2,30.09,ENE,69,0.0,0.0,87,0.00,,,0.00,Wunderground v.1.15,2013-07-19 14:01:00,
2013-07-19 10:06:00,74.4,69.9,30.09,ENE,69,0.0,1.0,86,0.00,,,0.00,Wunderground v.1.15,2013-07-19 14:06:00,
2013-07-19 10:11:00,75.0,70.2,30.09,ENE,69,0.0,2.0,85,0.00,,,0.00,Wunderground v.1.15,2013-07-19 14:11:00,
2013-07-19 10:16:00,75.7,70.5,30.09,ENE,69,0.0,2.0,84,0.00,,,0.00,Wunderground v.1.15,2013-07-19 14:16:00,
2013-07-19 10:21:00,76.2,70.7,30.09,North,360,0.0,1.0,83,0.00,,,0.00,Wunderground v.1.15,2013-07-19 14:21:00,
2013-07-19 10:26:00,76.7,71.1,30.09,North,355,0.0,1.0,83,0.00,,,0.00,Wunderground v.1.15,2013-07-19 14:26:00,
2013-07-19 10:31:00,77.2,70.9,30.09,North,355,0.0,1.0,81,0.00,,,0.00,Wunderground v.1.15,2013-07-19 14:31:00,
2013-07-19 10:36:00,77.0,70.0,30.09,North,355,0.0,1.0,79,0.00,,,0.00,Wunderground v.1.15,2013-07-19 14:36:00,
2013-07-19 10:41:00,76.6,70.3,30.09,North,355,0.0,0.0,81,0.00,,,0.00,Wunderground v.1.15,2013-07-19 14:41:00,
2013-07-19 10:46:00,76.3,69.7,30.10,North,5,0.0,1.0,80,0.00,,,0.00,Wunderground v.1.15,2013-07-19 14:46:00,
2013-07-19 10:51:00,76.4,70.5,30.10,SSW,213,0.0,1.0,82,0.00,,,0.00,Wunderground v.1.15,2013-07-19 14:51:00,
2013-07-19 10:56:00,76.2,70.7,30.10,North,11,0.0,5.0,83,0.00,,,0.00,Wunderground v.1.15,2013-07-19 14:56:00,
2013-07-19 11:01:00,76.0,70.8,30.09,North,351,0.0,1.0,84,0.00,,,0.00,Wunderground v.1.15,2013-07-19 15:01:00,
2013-07-19 11:06:00,76.0,71.2,30.09,NW,307,0.0,1.0,85,0.00,,,0.00,Wunderground v.1.15,2013-07-19 15:06:00,
2013-07-19 11:11:00,76.1,71.6,30.09,WNW,296,0.0,0.0,86,0.00,,,0.00,Wunderground v.1.15,2013-07-19 15:11:00,
2013-07-19 11:16:00,76.3,71.5,30.09,WNW,291,0.0,1.0,85,0.00,,,0.00,Wunderground v.1.15,2013-07-19 15:16:00,
2013-07-19 11:21:00,76.8,71.9,30.09,WNW,292,1.0,1.0,85,0.00,,,0.00,Wunderground v.1.15,2013-07-19 15:21:00,
2013-07-19 11:26:00,77.7,72.5,30.08,WNW,292,0.0,1.0,84,0.00,,,0.00,Wunderground v.1.15,2013-07-19 15:26:00,
2013-07-19 11:31:00,78.5,72.2,30.09,WNW,300,0.0,1.0,81,0.00,,,0.00,Wunderground v.1.15,2013-07-19 15:31:00,
2013-07-19 11:36:00,79.4,72.3,30.09,North,350,0.0,3.0,79,0.00,,,0.00,Wunderground v.1.15,2013-07-19 15:36:00,
2013-07-19 11:41:00,80.1,72.2,30.09,NW,313,0.0,2.0,77,0.00,,,0.00,Wunderground v.1.15,2013-07-19 15:41:00,
2013-07-19 11:46:00,80.8,72.9,30.09,WNW,288,0.0,2.0,77,0.00,,,0.00,Wunderground v.1.15,2013-07-19 15:46:00,
2013-07-19 11:51:00,80.9,71.8,30.09,WNW,302,0.0,1.0,74,0.00,,,0.00,Wunderground v.1.15,2013-07-19 15:51:00,
2013-07-19 11:56:00,81.1,72.0,30.08,South,176,1.0,4.0,74,0.00,,,0.00,Wunderground v.1.15,2013-07-19 15:56:00,
2013-07-19 12:01:00,81.6,72.5,30.08,SW,225,0.0,1.0,74,0.00,,,0.00,Wunderground v.1.15,2013-07-19 16:01:00,
2013-07-19 12:06:00,81.8,72.7,30.08,NW,324,0.0,6.0,74,0.00,,,0.00,Wunderground v.1.15,2013-07-19 16:06:00,
2013-07-19 12:11:00,81.6,71.7,30.08,NW,314,4.0,6.0,72,0.00,,,0.00,Wunderground v.1.15,2013-07-19 16:11:00,
2013-07-19 12:16:00,81.8,71.9,30.07,WNW,290,0.0,7.0,72,0.00,,,0.00,Wunderground v.1.15,2013-07-19 16:16:00,
2013-07-19 12:22:00,82.2,71.4,30.08,NW,306,2.0,5.0,70,0.00,,,0.00,Wunderground v.1.15,2013-07-19 16:22:00,
2013-07-19 12:27:00,81.9,71.6,30.08,NNW,345,0.0,7.0,71,0.00,,,0.00,Wunderground v.1.15,2013-07-19 16:27:00,
2013-07-19 12:32:00,81.5,72.0,30.08,WSW,242,0.0,1.0,73,0.00,,,0.00,Wunderground v.1.15,2013-07-19 16:32:00,
2013-07-19 12:37:00,81.5,71.6,30.07,WSW,247,0.0,5.0,72,0.00,,,0.00,Wunderground v.1.15,2013-07-19 16:37:00,
2013-07-19 12:42:00,81.8,72.7,30.07,NW,323,0.0,8.0,74,0.00,,,0.00,Wunderground v.1.15,2013-07-19 16:42:00,
2013-07-19 12:47:00,81.8,71.1,30.07,NNW,342,0.0,8.0,70,0.00,,,0.00,Wunderground v.1.15,2013-07-19 16:47:00,
2013-07-19 12:52:00,81.8,71.9,30.07,West,262,0.0,1.0,72,0.00,,,0.00,Wunderground v.1.15,2013-07-19 16:52:00,
2013-07-19 12:57:00,82.1,71.8,30.06,South,188,0.0,3.0,71,0.00,,,0.00,Wunderground v.1.15,2013-07-19 16:57:00,
2013-07-19 13:02:00,82.7,72.3,30.06,NNE,29,2.0,2.0,71,0.00,,,0.00,Wunderground v.1.15,2013-07-19 17:02:00,
2013-07-19 13:07:00,83.1,71.4,30.06,NW,315,0.0,4.0,68,0.00,,,0.00,Wunderground v.1.15,2013-07-19 17:07:00,
2013-07-19 13:12:00,83.4,72.2,30.06,SW,227,0.0,1.0,69,0.00,,,0.00,Wunderground v.1.15,2013-07-19 17:12:00,
2013-07-19 13:17:00,83.7,72.9,30.06,SSW,211,3.0,5.0,70,0.00,,,0.00,Wunderground v.1.15,2013-07-19 17:17:00,
2013-07-19 13:22:00,84.2,73.3,30.05,NNW,327,0.0,4.0,70,0.00,,,0.00,Wunderground v.1.15,2013-07-19 17:22:00,
2013-07-19 13:27:00,84.2,71.6,30.05,WNW,294,0.0,4.0,66,0.00,,,0.00,Wunderground v.1.15,2013-07-19 17:27:00,
2013-07-19 13:32:00,84.2,72.0,30.05,NW,310,4.0,6.0,67,0.00,,,0.00,Wunderground v.1.15,2013-07-19 17:32:00,
2013-07-19 13:37:00,84.2,71.2,30.04,SW,235,0.0,6.0,65,0.00,,,0.00,Wunderground v.1.15,2013-07-19 17:37:00,
2013-07-19 13:41:00,84.2,71.2,30.04,SW,225,0.0,1.0,65,0.00,,,0.00,Wunderground v.1.15,2013-07-19 17:41:00,
2013-07-19 13:46:00,84.2,71.6,30.04,SW,228,0.0,4.0,66,0.00,,,0.00,Wunderground v.1.15,2013-07-19 17:46:00,
2013-07-19 13:52:00,83.7,71.1,30.04,NNW,334,0.0,5.0,66,0.00,,,0.00,Wunderground v.1.15,2013-07-19 17:52:00,
2013-07-19 13:57:00,83.0,71.3,30.03,NNW,329,0.0,5.0,68,0.00,,,0.00,Wunderground v.1.15,2013-07-19 17:57:00,
2013-07-19 14:01:00,82.6,72.2,30.03,NW,318,0.0,1.0,71,0.00,,,0.00,Wunderground v.1.15,2013-07-19 18:01:00,
2013-07-19 14:06:00,82.4,71.6,30.03,NW,313,0.0,1.0,70,0.00,,,0.00,Wunderground v.1.15,2013-07-19 18:06:00,
2013-07-19 14:11:00,82.3,71.1,30.02,NW,317,2.0,2.0,69,0.00,,,0.00,Wunderground v.1.15,2013-07-19 18:11:00,
2013-07-19 14:16:00,82.6,70.5,30.02,NW,311,1.0,5.0,67,0.00,,,0.00,Wunderground v.1.15,2013-07-19 18:16:00,
2013-07-19 14:21:00,83.1,71.0,30.02,NW,313,1.0,5.0,67,0.00,,,0.00,Wunderground v.1.15,2013-07-19 18:21:00,
2013-07-19 14:26:00,83.7,72.4,30.02,WNW,286,6.0,7.0,69,0.00,,,0.00,Wunderground v.1.15,2013-07-19 18:26:00,
2013-07-19 14:31:00,84.1,70.6,30.02,WSW,257,0.0,6.0,64,0.00,,,0.00,Wunderground v.1.15,2013-07-19 18:31:00,
2013-07-19 14:36:00,84.7,71.2,30.02,North,11,2.0,6.0,64,0.00,,,0.00,Wunderground v.1.15,2013-07-19 18:36:00,
2013-07-19 14:41:00,84.6,71.5,30.02,NW,315,6.0,6.0,65,0.00,,,0.00,Wunderground v.1.15,2013-07-19 18:41:00,
2013-07-19 14:47:00,84.6,72.4,30.02,NW,323,0.0,6.0,67,0.00,,,0.00,Wunderground v.1.15,2013-07-19 18:47:00,
2013-07-19 14:52:00,84.5,71.0,30.01,NNW,341,1.0,2.0,64,0.00,,,0.00,Wunderground v.1.15,2013-07-19 18:52:00,
2013-07-19 14:57:00,84.5,72.3,30.01,NNW,327,0.0,3.0,67,0.00,,,0.00,Wunderground v.1.15,2013-07-19 18:57:00,
2013-07-19 15:02:00,84.7,70.7,30.01,WSW,253,0.0,5.0,63,0.00,,,0.00,Wunderground v.1.15,2013-07-19 19:02:00,
2013-07-19 15:07:00,85.0,71.5,30.01,West,271,0.0,5.0,64,0.00,,,0.00,Wunderground v.1.15,2013-07-19 19:07:00,
2013-07-19 15:12:00,85.5,72.8,30.01,WSW,254,0.0,2.0,66,0.00,,,0.00,Wunderground v.1.15,2013-07-19 19:12:00,
2013-07-19 15:17:00,85.8,71.3,30.00,WSW,249,0.0,6.0,62,0.00,,,0.00,Wunderground v.1.15,2013-07-19 19:17:00,
2013-07-19 15:22:00,86.3,72.7,30.00,SSW,194,0.0,6.0,64,0.00,,,0.00,Wunderground v.1.15,2013-07-19 19:22:00,
2013-07-19 15:27:00,86.5,72.9,30.00,SW,236,0.0,9.0,64,0.00,,,0.00,Wunderground v.1.15,2013-07-19 19:27:00,
2013-07-19 15:32:00,86.2,71.2,30.00,South,185,1.0,3.0,61,0.00,,,0.00,Wunderground v.1.15,2013-07-19 19:32:00,
2013-07-19 15:37:00,85.6,71.6,30.00,NE,55,0.0,6.0,63,0.00,,,0.00,Wunderground v.1.15,2013-07-19 19:37:00,
2013-07-19 15:42:00,84.8,72.6,29.99,SSW,205,5.0,5.0,67,0.00,,,0.00,Wunderground v.1.15,2013-07-19 19:42:00,
2013-07-19 15:47:00,83.9,72.2,29.99,SW,219,0.0,9.0,68,0.00,,,0.00,Wunderground v.1.15,2013-07-19 19:47:00,
2013-07-19 15:52:00,83.0,72.2,29.98,WSW,238,5.0,5.0,70,0.00,,,0.00,Wunderground v.1.15,2013-07-19 19:52:00,
2013-07-19 15:57:00,82.3,72.0,29.98,WSW,242,0.0,5.0,71,0.00,,,0.00,Wunderground v.1.15,2013-07-19 19:57:00,
2013-07-19 16:02:00,82.1,71.3,29.98,West,267,2.0,6.0,70,0.00,,,0.00,Wunderground v.1.15,2013-07-19 20:02:00,
2013-07-19 16:07:00,81.8,70.6,29.99,SW,236,0.0,6.0,69,0.00,,,0.00,Wunderground v.1.15,2013-07-19 20:07:00,
2013-07-19 16:12:00,81.4,71.5,29.98,WSW,239,5.0,5.0,72,0.00,,,0.00,Wunderground v.1.15,2013-07-19 20:12:00,
2013-07-19 16:17:00,81.0,71.5,29.99,West,267,2.0,5.0,73,0.00,,,0.00,Wunderground v.1.15,2013-07-19 20:17:00,
2013-07-19 16:22:00,80.6,70.7,29.99,SW,229,2.0,3.0,72,0.00,,,0.00,Wunderground v.1.15,2013-07-19 20:22:00,
2013-07-19 16:27:00,80.4,70.9,29.98,SSW,197,0.0,3.0,73,0.00,,,0.00,Wunderground v.1.15,2013-07-19 20:27:00,
2013-07-19 16:32:00,80.4,70.1,29.98,WNW,285,1.0,1.0,71,0.00,,,0.00,Wunderground v.1.15,2013-07-19 20:32:00,
2013-07-19 16:37:00,80.7,70.4,29.98,WNW,290,0.0,4.0,71,0.00,,,0.00,Wunderground v.1.15,2013-07-19 20:37:00,
2013-07-19 16:42:00,81.3,71.0,29.98,SW,236,0.0,3.0,71,0.00,,,0.00,Wunderground v.1.15,2013-07-19 20:42:00,
2013-07-19 16:47:00,81.8,72.7,29.98,WSW,250,0.0,3.0,74,0.00,,,0.00,Wunderground v.1.15,2013-07-19 20:47:00,
2013-07-19 16:52:00,82.1,71.3,29.97,SSE,167,0.0,6.0,70,0.00,,,0.00,Wunderground v.1.15,2013-07-19 20:52:00,
2013-07-19 16:57:00,82.6,71.8,29.97,NW,315,3.0,6.0,70,0.00,,,0.00,Wunderground v.1.15,2013-07-19 20:57:00,
2013-07-19 17:02:00,82.8,72.4,29.97,West,263,0.0,1.0,71,0.00,,,0.00,Wunderground v.1.15,2013-07-19 21:02:00,
2013-07-19 17:07:00,83.2,71.5,29.98,West,260,0.0,3.0,68,0.00,,,0.00,Wunderground v.1.15,2013-07-19 21:07:00,
2013-07-19 17:12:00,83.6,72.8,29.98,West,261,0.0,5.0,70,0.00,,,0.00,Wunderground v.1.15,2013-07-19 21:12:00,
2013-07-19 17:17:00,83.5,73.5,29.97,WNW,290,1.0,5.0,72,0.00,,,0.00,Wunderground v.1.15,2013-07-19 21:17:00,
2013-07-19 17:22:00,83.6,73.6,29.98,North,350,6.0,8.0,72,0.00,,,0.00,Wunderground v.1.15,2013-07-19 21:22:00,
2013-07-19 17:27:00,83.9,73.9,29.98,WNW,287,0.0,8.0,72,0.00,,,0.00,Wunderground v.1.15,2013-07-19 21:27:00,
2013-07-19 17:32:00,84.1,73.7,29.97,SW,229,2.0,4.0,71,0.00,,,0.00,Wunderground v.1.15,2013-07-19 21:32:00,
2013-07-19 17:37:00,84.2,72.9,29.97,WNW,292,0.0,5.0,69,0.00,,,0.00,Wunderground v.1.15,2013-07-19 21:37:00,
2013-07-19 17:42:00,84.3,73.0,29.97,SW,228,0.0,4.0,69,0.00,,,0.00,Wunderground v.1.15,2013-07-19 21:42:00,
2013-07-19 17:47:00,84.2,71.6,29.97,NNW,332,0.0,7.0,66,0.00,,,0.00,Wunderground v.1.15,2013-07-19 21:47:00,
2013-07-19 17:52:00,83.7,72.4,29.97,NNW,331,0.0,1.0,69,0.00,,,0.00,Wunderground v.1.15,2013-07-19 21:52:00,
2013-07-19 17:57:00,83.3,72.9,29.98,NNW,331,0.0,1.0,71,0.00,,,0.00,Wunderground v.1.15,2013-07-19 21:57:00,
2013-07-19 18:02:00,82.8,72.4,29.98,NNW,331,0.0,1.0,71,0.00,,,0.00,Wunderground v.1.15,2013-07-19 22:02:00,
2013-07-19 18:07:00,82.1,71.3,29.97,ESE,103,0.0,7.0,70,0.00,,,0.00,Wunderground v.1.15,2013-07-19 22:07:00,
2013-07-19 18:12:00,81.1,71.2,29.97,SE,143,0.0,4.0,72,0.00,,,0.00,Wunderground v.1.15,2013-07-19 22:12:00,
2013-07-19 18:17:00,80.2,70.8,29.97,SE,133,0.0,4.0,73,0.00,,,0.00,Wunderground v.1.15,2013-07-19 22:17:00,
2013-07-19 18:22:00,79.5,71.3,29.97,SE,133,0.0,1.0,76,0.00,,,0.00,Wunderground v.1.15,2013-07-19 22:22:00,
2013-07-19 18:27:00,79.0,71.2,29.97,SE,134,0.0,2.0,77,0.00,,,0.00,Wunderground v.1.15,2013-07-19 22:27:00,
2013-07-19 18:32:00,78.6,70.8,29.97,SSE,157,0.0,4.0,77,0.00,,,0.00,Wunderground v.1.15,2013-07-19 22:32:00,
2013-07-19 18:37:00,78.1,70.7,29.97,SSE,153,0.0,4.0,78,0.00,,,0.00,Wunderground v.1.15,2013-07-19 22:37:00,
2013-07-19 18:42:00,77.8,70.8,29.97,SE,128,0.0,1.0,79,0.00,,,0.00,Wunderground v.1.15,2013-07-19 22:42:00,
2013-07-19 18:47:00,77.6,70.2,29.98,ESE,112,0.0,5.0,78,0.00,,,0.00,Wunderground v.1.15,2013-07-19 22:47:00,
2013-07-19 18:52:00,77.3,69.9,29.98,NE,42,3.0,7.0,78,0.00,,,0.00,Wunderground v.1.15,2013-07-19 22:52:00,
2013-07-19 18:57:00,75.8,68.4,29.99,ESE,116,0.0,12.0,78,0.00,,,0.00,Wunderground v.1.15,2013-07-19 22:57:00,
2013-07-19 19:02:00,74.9,67.9,29.98,SE,126,0.0,5.0,79,0.00,,,0.00,Wunderground v.1.15,2013-07-19 23:02:00,
2013-07-19 19:07:00,74.7,67.8,29.98,ESE,107,0.0,5.0,79,0.00,,,0.00,Wunderground v.1.15,2013-07-19 23:07:00,
2013-07-19 19:12:00,74.7,67.8,29.98,East,97,0.0,4.0,79,0.00,,,0.00,Wunderground v.1.15,2013-07-19 23:12:00,
2013-07-19 19:17:00,74.9,68.7,29.97,East,97,0.0,4.0,81,0.00,,,0.00,Wunderground v.1.15,2013-07-19 23:17:00,
2013-07-19 19:22:00,75.1,68.5,29.97,NNE,32,0.0,1.0,80,0.00,,,0.00,Wunderground v.1.15,2013-07-19 23:22:00,
2013-07-19 19:27:00,75.1,68.1,29.97,NNE,31,3.0,6.0,79,0.00,,,0.00,Wunderground v.1.15,2013-07-19 23:27:00,
2013-07-19 19:32:00,74.9,68.7,29.97,ENE,62,3.0,8.0,81,0.00,,,0.00,Wunderground v.1.15,2013-07-19 23:32:00,
2013-07-19 19:37:00,74.7,68.1,29.97,East,98,0.0,8.0,80,0.00,,,0.00,Wunderground v.1.15,2013-07-19 23:37:00,
2013-07-19 19:42:00,74.7,68.1,29.97,SSE,151,0.0,2.0,80,0.00,,,0.00,Wunderground v.1.15,2013-07-19 23:42:00,
2013-07-19 19:47:00,74.6,67.7,29.97,NNE,33,0.0,7.0,79,0.00,,,0.00,Wunderground v.1.15,2013-07-19 23:47:00,
2013-07-19 19:52:00,74.5,67.6,29.97,ENE,71,4.0,4.0,79,0.00,,,0.00,Wunderground v.1.15,2013-07-19 23:52:00,
2013-07-19 19:57:00,74.5,67.2,29.97,WSW,247,0.0,4.0,78,0.00,,,0.00,Wunderground v.1.15,2013-07-19 23:57:00,
2013-07-19 20:02:00,74.6,67.7,29.97,East,97,2.0,2.0,79,0.00,,,0.00,Wunderground v.1.15,2013-07-20 00:02:00,
2013-07-19 20:07:00,74.7,67.4,29.98,East,86,0.0,3.0,78,0.00,,,0.00,Wunderground v.1.15,2013-07-20 00:07:00,
2013-07-19 20:12:00,74.7,68.1,29.98,East,101,0.0,1.0,80,0.00,,,0.00,Wunderground v.1.15,2013-07-20 00:12:00,
2013-07-19 20:17:00,74.6,68.0,29.97,ENE,67,0.0,1.0,80,0.00,,,0.00,Wunderground v.1.15,2013-07-20 00:17:00,
2013-07-19 20:22:00,74.4,67.8,29.97,SSE,150,0.0,1.0,80,0.00,,,0.00,Wunderground v.1.15,2013-07-20 00:22:00,
2013-07-19 20:27:00,74.1,67.9,29.98,North,351,5.0,6.0,81,0.00,,,0.00,Wunderground v.1.15,2013-07-20 00:27:00,
2013-07-19 20:32:00,73.8,68.0,29.98,NNE,14,0.0,2.0,82,0.00,,,0.00,Wunderground v.1.15,2013-07-20 00:32:00,
2013-07-19 20:37:00,73.7,68.2,29.98,NNE,14,0.0,2.0,83,0.00,,,0.00,Wunderground v.1.15,2013-07-20 00:37:00,
2013-07-19 20:42:00,73.7,67.9,29.98,NNE,14,0.0,0.0,82,0.00,,,0.00,Wunderground v.1.15,2013-07-20 00:42:00,
2013-07-19 20:47:00,73.7,68.2,29.98,ENE,61,0.0,1.0,83,0.00,,,0.00,Wunderground v.1.15,2013-07-20 00:47:00,
2013-07-19 20:52:00,73.6,68.1,29.98,ENE,71,0.0,1.0,83,0.00,,,0.00,Wunderground v.1.15,2013-07-20 00:52:00,
2013-07-19 20:57:00,73.5,68.0,29.98,ENE,71,0.0,1.0,83,0.00,,,0.00,Wunderground v.1.15,2013-07-20 00:57:00,
2013-07-19 21:02:00,73.5,68.0,29.99,ENE,71,0.0,1.0,83,0.00,,,0.00,Wunderground v.1.15,2013-07-20 01:02:00,
2013-07-19 21:07:00,73.3,68.2,29.99,ENE,71,0.0,1.0,84,0.00,,,0.00,Wunderground v.1.15,2013-07-20 01:07:00,
2013-07-19 21:12:00,73.2,68.1,29.99,ENE,71,0.0,0.0,84,0.00,,,0.00,Wunderground v.1.15,2013-07-20 01:12:00,
2013-07-19 21:17:00,73.1,68.3,29.99,ENE,71,0.0,0.0,85,0.00,,,0.00,Wunderground v.1.15,2013-07-20 01:17:00,
2013-07-19 21:22:00,73.0,68.2,29.99,ENE,71,0.0,0.0,85,0.00,,,0.00,Wunderground v.1.15,2013-07-20 01:22:00,
2013-07-19 21:27:00,72.9,68.1,30.00,ENE,71,0.0,1.0,85,0.00,,,0.00,Wunderground v.1.15,2013-07-20 01:27:00,
2013-07-19 21:32:00,72.7,67.9,29.99,ENE,71,0.0,0.0,85,0.00,,,0.00,Wunderground v.1.15,2013-07-20 01:32:00,
2013-07-19 21:37:00,72.6,67.8,30.00,ENE,71,0.0,0.0,85,0.00,,,0.00,Wunderground v.1.15,2013-07-20 01:37:00,
2013-07-19 21:42:00,72.4,67.6,29.99,ENE,71,0.0,0.0,85,0.00,,,0.00,Wunderground v.1.15,2013-07-20 01:42:00,
2013-07-19 21:47:00,72.3,67.9,30.00,ENE,71,0.0,0.0,86,0.00,,,0.00,Wunderground v.1.15,2013-07-20 01:47:00,
2013-07-19 21:52:00,72.2,67.8,30.00,ENE,71,0.0,0.0,86,0.00,,,0.00,Wunderground v.1.15,2013-07-20 01:52:00,
2013-07-19 21:57:00,72.0,67.6,30.00,ENE,71,0.0,0.0,86,0.00,,,0.00,Wunderground v.1.15,2013-07-20 01:57:00,
2013-07-19 22:02:00,71.9,67.8,30.00,ENE,71,0.0,1.0,87,0.00,,,0.00,Wunderground v.1.15,2013-07-20 02:02:00,
2013-07-19 22:08:00,71.7,67.6,30.00,SE,145,0.0,1.0,87,0.00,,,0.00,Wunderground v.1.15,2013-07-20 02:08:00,
2013-07-19 22:13:00,71.6,67.9,30.00,SSE,152,0.0,1.0,88,0.00,,,0.00,Wunderground v.1.15,2013-07-20 02:13:00,
2013-07-19 22:18:00,71.5,67.8,30.01,SSE,153,0.0,1.0,88,0.00,,,0.00,Wunderground v.1.15,2013-07-20 02:18:00,
2013-07-19 22:23:00,71.4,67.7,30.01,SSE,153,0.0,0.0,88,0.00,,,0.00,Wunderground v.1.15,2013-07-20 02:23:00,
2013-07-19 22:28:00,71.3,67.6,30.01,SSE,153,0.0,1.0,88,0.00,,,0.00,Wunderground v.1.15,2013-07-20 02:28:00,
2013-07-19 22:33:00,71.2,67.8,30.01,SSE,152,0.0,0.0,89,0.00,,,0.00,Wunderground v.1.15,2013-07-20 02:33:00,
2013-07-19 22:38:00,71.0,67.6,30.01,SSE,153,0.0,0.0,89,0.00,,,0.00,Wunderground v.1.15,2013-07-20 02:38:00,
2013-07-19 22:43:00,70.9,67.5,30.01,SSE,153,0.0,0.0,89,0.00,,,0.00,Wunderground v.1.15,2013-07-20 02:43:00,
2013-07-19 22:48:00,70.9,67.5,30.01,SSE,153,0.0,1.0,89,0.00,,,0.00,Wunderground v.1.15,2013-07-20 02:48:00,
2013-07-19 22:53:00,70.7,67.3,30.01,SSE,153,0.0,0.0,89,0.00,,,0.00,Wunderground v.1.15,2013-07-20 02:53:00,
2013-07-19 22:58:00,70.7,67.6,30.01,SSE,153,0.0,0.0,90,0.00,,,0.00,Wunderground v.1.15,2013-07-20 02:58:00,
2013-07-19 23:03:00,70.6,67.5,30.01,SSE,152,0.0,0.0,90,0.00,,,0.00,Wunderground v.1.15,2013-07-20 03:03:00,
2013-07-19 23:08:00,70.5,67.4,30.01,SSE,153,0.0,0.0,90,0.00,,,0.00,Wunderground v.1.15,2013-07-20 03:08:00,
2013-07-19 23:13:00,70.6,67.8,30.01,SSE,153,0.0,0.0,91,0.00,,,0.00,Wunderground v.1.15,2013-07-20 03:13:00,
2013-07-19 23:18:00,70.6,67.8,30.01,SSE,153,0.0,0.0,91,0.00,,,0.00,Wunderground v.1.15,2013-07-20 03:18:00,
2013-07-19 23:23:00,70.6,67.8,30.02,SSE,153,0.0,0.0,91,0.00,,,0.00,Wunderground v.1.15,2013-07-20 03:23:00,
2013-07-19 23:28:00,70.6,67.8,30.02,SSE,153,0.0,0.0,91,0.00,,,0.00,Wunderground v.1.15,2013-07-20 03:28:00,
2013-07-19 23:33:00,70.6,67.8,30.02,SSE,153,0.0,0.0,91,0.00,,,0.00,Wunderground v.1.15,2013-07-20 03:33:00,
2013-07-19 23:38:00,70.5,67.7,30.02,SSE,153,0.0,1.0,91,0.00,,,0.00,Wunderground v.1.15,2013-07-20 03:38:00,
2013-07-19 23:43:00,70.5,68.1,30.02,SSE,152,0.0,1.0,92,0.00,,,0.00,Wunderground v.1.15,2013-07-20 03:43:00,
2013-07-19 23:48:00,70.5,67.7,30.02,SSE,152,0.0,1.0,91,0.00,,,0.00,Wunderground v.1.15,2013-07-20 03:48:00,
2013-07-19 23:53:00,70.4,68.0,30.01,SSE,152,0.0,0.0,92,0.00,,,0.00,Wunderground v.1.15,2013-07-20 03:53:00,
2013-07-19 23:58:00,70.4,68.0,30.01,SSE,152,0.0,0.0,92,0.00,,,0.00,Wunderground v.1.15,2013-07-20 03:58:00,